LOG903 EGPD-EGPB
Flight info
| Callsign | LOG903 |
|---|---|
| Flight time | 0h 47m |
| Altitude | 19000 |
| Route | ADN Y905 MOCHA |
| Aircraft | AT76/M-VGDW/C |
Departure
| Time | 2026-04-24 09:42 |
|---|---|
| Airport | Aberdeen International Airport (EGPD) |
Arrival
| Time | 2026-04-24 10:29 |
|---|---|
| Airport | Sumburgh Airport (EGPB) |
| Time | Latitude | Longitude | Altitude | Speed | Heading |
|---|---|---|---|---|---|
| 2026-04-24 09:14 | 57.20251 | -2.20393 | 209 ft | 0 kts | 136° |
| 2026-04-24 09:32 | 57.20262 | -2.20412 | 213 ft | 3 kts | 136° |
| 2026-04-24 09:32 | 57.20274 | -2.20439 | 209 ft | 3 kts | 101° |
| 2026-04-24 09:33 | 57.20275 | -2.20463 | 209 ft | 0 kts | 69° |
| 2026-04-24 09:36 | 57.20275 | -2.20462 | 209 ft | 1 kts | 68° |
| 2026-04-24 09:36 | 57.20290 | -2.20427 | 209 ft | 6 kts | 48° |
| 2026-04-24 09:36 | 57.20315 | -2.20376 | 209 ft | 3 kts | 52° |
| 2026-04-24 09:36 | 57.20318 | -2.20321 | 209 ft | 6 kts | 111° |
| 2026-04-24 09:37 | 57.20278 | -2.20278 | 213 ft | 8 kts | 156° |
| 2026-04-24 09:37 | 57.20221 | -2.20236 | 212 ft | 10 kts | 159° |
| 2026-04-24 09:37 | 57.20156 | -2.20190 | 217 ft | 10 kts | 159° |
| 2026-04-24 09:37 | 57.20086 | -2.20139 | 209 ft | 11 kts | 158° |
| 2026-04-24 09:38 | 57.20014 | -2.20084 | 209 ft | 11 kts | 158° |
| 2026-04-24 09:38 | 57.19949 | -2.20009 | 208 ft | 11 kts | 135° |
| 2026-04-24 09:38 | 57.19895 | -2.19911 | 209 ft | 11 kts | 136° |
| 2026-04-24 09:38 | 57.19833 | -2.19831 | 211 ft | 10 kts | 160° |
| 2026-04-24 09:39 | 57.19764 | -2.19784 | 213 ft | 10 kts | 157° |
| 2026-04-24 09:39 | 57.19675 | -2.19717 | 211 ft | 15 kts | 158° |
| 2026-04-24 09:39 | 57.19595 | -2.19632 | 214 ft | 12 kts | 139° |
| 2026-04-24 09:39 | 57.19536 | -2.19538 | 216 ft | 10 kts | 140° |
| 2026-04-24 09:40 | 57.19508 | -2.19493 | 217 ft | 0 kts | 139° |
| 2026-04-24 09:40 | 57.19507 | -2.19492 | 221 ft | 2 kts | 139° |
| 2026-04-24 09:41 | 57.19473 | -2.19437 | 219 ft | 10 kts | 139° |
| 2026-04-24 09:41 | 57.19423 | -2.19322 | 219 ft | 12 kts | 92° |
| 2026-04-24 09:41 | 57.19480 | -2.19247 | 218 ft | 11 kts | 338° |
| 2026-04-24 09:41 | 57.19573 | -2.19322 | 218 ft | 33 kts | 338° |
| 2026-04-24 09:42 | 57.20028 | -2.19657 | 215 ft | 104 kts | 338° |
| 2026-04-24 09:42 | 57.20804 | -2.20246 | 524 ft | 125 kts | 336° |
| 2026-04-24 09:42 | 57.21597 | -2.20884 | 1138 ft | 129 kts | 337° |
| 2026-04-24 09:42 | 57.22519 | -2.21589 | 1382 ft | 156 kts | 337° |
| 2026-04-24 09:43 | 57.23523 | -2.22369 | 1936 ft | 152 kts | 339° |
| 2026-04-24 09:43 | 57.24575 | -2.23034 | 2336 ft | 161 kts | 344° |
| 2026-04-24 09:43 | 57.25655 | -2.23590 | 2769 ft | 168 kts | 345° |
| 2026-04-24 09:43 | 57.26818 | -2.24155 | 3149 ft | 174 kts | 345° |
| 2026-04-24 09:44 | 57.27991 | -2.24758 | 3629 ft | 176 kts | 343° |
| 2026-04-24 09:44 | 57.29162 | -2.25429 | 4093 ft | 177 kts | 341° |
| 2026-04-24 09:44 | 57.30332 | -2.26128 | 4544 ft | 176 kts | 345° |
| 2026-04-24 09:44 | 57.31527 | -2.25833 | 4945 ft | 181 kts | 30° |
| 2026-04-24 09:45 | 57.32516 | -2.24391 | 5395 ft | 184 kts | 40° |
| 2026-04-24 09:45 | 57.33448 | -2.22720 | 5859 ft | 185 kts | 44° |
| 2026-04-24 09:45 | 57.34344 | -2.21011 | 6300 ft | 186 kts | 44° |
| 2026-04-24 09:45 | 57.35234 | -2.19317 | 6742 ft | 186 kts | 44° |
| 2026-04-24 09:46 | 57.36148 | -2.17603 | 7148 ft | 187 kts | 43° |
| 2026-04-24 09:46 | 57.37071 | -2.15886 | 7547 ft | 189 kts | 43° |
| 2026-04-24 09:46 | 57.38010 | -2.14169 | 7932 ft | 190 kts | 42° |
| 2026-04-24 09:46 | 57.38957 | -2.12456 | 8329 ft | 191 kts | 42° |
| 2026-04-24 09:47 | 57.39913 | -2.10727 | 8719 ft | 192 kts | 42° |
| 2026-04-24 09:47 | 57.40875 | -2.08986 | 9098 ft | 194 kts | 41° |
| 2026-04-24 09:47 | 57.41845 | -2.07233 | 9476 ft | 195 kts | 41° |
| 2026-04-24 09:47 | 57.42822 | -2.05470 | 9862 ft | 197 kts | 41° |
| 2026-04-24 09:48 | 57.43806 | -2.03688 | 10238 ft | 198 kts | 41° |
| 2026-04-24 09:48 | 57.44794 | -2.01897 | 10571 ft | 199 kts | 41° |
| 2026-04-24 09:48 | 57.45790 | -2.00101 | 10906 ft | 200 kts | 41° |
| 2026-04-24 09:48 | 57.46773 | -1.98319 | 11230 ft | 201 kts | 41° |
| 2026-04-24 09:49 | 57.47775 | -1.96502 | 11562 ft | 201 kts | 41° |
| 2026-04-24 09:49 | 57.48778 | -1.94674 | 11886 ft | 202 kts | 41° |
| 2026-04-24 09:49 | 57.49786 | -1.92846 | 12220 ft | 203 kts | 41° |
| 2026-04-24 09:49 | 57.50800 | -1.91003 | 12545 ft | 204 kts | 41° |
| 2026-04-24 09:50 | 57.51816 | -1.89149 | 12864 ft | 205 kts | 41° |
| 2026-04-24 09:50 | 57.52836 | -1.87287 | 13183 ft | 206 kts | 41° |
| 2026-04-24 09:50 | 57.53862 | -1.85419 | 13502 ft | 207 kts | 41° |
| 2026-04-24 09:50 | 57.54890 | -1.83541 | 13827 ft | 207 kts | 41° |
| 2026-04-24 09:51 | 57.55955 | -1.81801 | 14115 ft | 205 kts | 24° |
| 2026-04-24 09:51 | 57.57305 | -1.81152 | 14337 ft | 201 kts | 4° |
| 2026-04-24 09:51 | 57.58698 | -1.80893 | 14582 ft | 202 kts | 1° |
| 2026-04-24 09:51 | 57.60101 | -1.80687 | 14828 ft | 202 kts | 1° |
| 2026-04-24 09:52 | 57.61508 | -1.80473 | 15070 ft | 204 kts | 1° |
| 2026-04-24 09:52 | 57.62444 | -1.80325 | 15230 ft | 204 kts | 2° |
| 2026-04-24 09:52 | 57.63867 | -1.80057 | 15494 ft | 205 kts | 3° |
| 2026-04-24 09:52 | 57.65291 | -1.79762 | 15745 ft | 206 kts | 3° |
| 2026-04-24 09:53 | 57.66721 | -1.79456 | 15995 ft | 207 kts | 3° |
| 2026-04-24 09:53 | 57.68155 | -1.79150 | 16238 ft | 208 kts | 3° |
| 2026-04-24 09:53 | 57.69598 | -1.78842 | 16468 ft | 209 kts | 3° |
| 2026-04-24 09:53 | 57.71046 | -1.78532 | 16686 ft | 210 kts | 3° |
| 2026-04-24 09:54 | 57.72501 | -1.78217 | 16913 ft | 211 kts | 2° |
| 2026-04-24 09:54 | 57.73962 | -1.77902 | 17125 ft | 212 kts | 2° |
| 2026-04-24 09:54 | 57.75429 | -1.77584 | 17336 ft | 212 kts | 2° |
| 2026-04-24 09:54 | 57.76901 | -1.77266 | 17572 ft | 213 kts | 2° |
| 2026-04-24 09:55 | 57.78358 | -1.76948 | 17794 ft | 214 kts | 2° |
| 2026-04-24 09:55 | 57.79841 | -1.76627 | 18019 ft | 215 kts | 2° |
| 2026-04-24 09:55 | 57.81336 | -1.76305 | 18230 ft | 216 kts | 2° |
| 2026-04-24 09:55 | 57.82834 | -1.75982 | 18440 ft | 217 kts | 2° |
| 2026-04-24 09:56 | 57.84339 | -1.75656 | 18637 ft | 218 kts | 2° |
| 2026-04-24 09:56 | 57.85850 | -1.75327 | 18812 ft | 219 kts | 2° |
| 2026-04-24 09:56 | 57.87365 | -1.74998 | 18976 ft | 219 kts | 2° |
| 2026-04-24 09:56 | 57.88883 | -1.74668 | 19134 ft | 220 kts | 2° |
| 2026-04-24 09:57 | 57.90906 | -1.74227 | 19300 ft | 223 kts | 2° |
| 2026-04-24 09:57 | 57.91938 | -1.74001 | 19341 ft | 226 kts | 2° |
| 2026-04-24 09:57 | 57.93519 | -1.73658 | 19372 ft | 231 kts | 2° |
| 2026-04-24 09:57 | 57.95137 | -1.73304 | 19389 ft | 236 kts | 2° |
| 2026-04-24 09:58 | 57.96787 | -1.72942 | 19392 ft | 241 kts | 2° |
| 2026-04-24 09:58 | 57.98464 | -1.72576 | 19396 ft | 244 kts | 2° |
| 2026-04-24 09:58 | 58.00161 | -1.72205 | 19396 ft | 247 kts | 2° |
| 2026-04-24 09:58 | 58.01876 | -1.71829 | 19399 ft | 249 kts | 2° |
| 2026-04-24 09:59 | 58.03607 | -1.71448 | 19396 ft | 251 kts | 2° |
| 2026-04-24 09:59 | 58.05351 | -1.71065 | 19399 ft | 252 kts | 2° |
| 2026-04-24 09:59 | 58.07102 | -1.70680 | 19393 ft | 253 kts | 2° |
| 2026-04-24 09:59 | 58.08858 | -1.70292 | 19395 ft | 254 kts | 2° |
| 2026-04-24 10:00 | 58.10594 | -1.69910 | 19399 ft | 255 kts | 2° |
| 2026-04-24 10:00 | 58.12357 | -1.69522 | 19392 ft | 255 kts | 2° |
| 2026-04-24 10:00 | 58.14126 | -1.69131 | 19397 ft | 256 kts | 2° |
| 2026-04-24 10:00 | 58.15893 | -1.68741 | 19393 ft | 256 kts | 2° |
| 2026-04-24 10:01 | 58.17670 | -1.68347 | 19396 ft | 256 kts | 2° |
| 2026-04-24 10:01 | 58.19445 | -1.67953 | 19398 ft | 257 kts | 2° |
| 2026-04-24 10:01 | 58.21219 | -1.67561 | 19397 ft | 257 kts | 2° |
| 2026-04-24 10:01 | 58.22993 | -1.67167 | 19398 ft | 257 kts | 2° |
| 2026-04-24 10:02 | 58.24769 | -1.66771 | 19397 ft | 257 kts | 2° |
| 2026-04-24 10:02 | 58.26527 | -1.66380 | 19395 ft | 257 kts | 2° |
| 2026-04-24 10:02 | 58.28303 | -1.65985 | 19397 ft | 257 kts | 2° |
| 2026-04-24 10:02 | 58.30081 | -1.65589 | 19394 ft | 257 kts | 2° |
| 2026-04-24 10:03 | 58.31859 | -1.65192 | 19397 ft | 257 kts | 2° |
| 2026-04-24 10:03 | 58.33633 | -1.64793 | 19395 ft | 257 kts | 2° |
| 2026-04-24 10:03 | 58.35412 | -1.64397 | 19395 ft | 257 kts | 2° |
| 2026-04-24 10:03 | 58.37185 | -1.64006 | 19396 ft | 257 kts | 2° |
| 2026-04-24 10:04 | 58.38939 | -1.63617 | 19397 ft | 257 kts | 2° |
| 2026-04-24 10:04 | 58.40719 | -1.63207 | 19395 ft | 257 kts | 2° |
| 2026-04-24 10:04 | 58.42495 | -1.62804 | 19397 ft | 257 kts | 2° |
| 2026-04-24 10:04 | 58.44269 | -1.62408 | 19398 ft | 257 kts | 2° |
| 2026-04-24 10:05 | 58.46048 | -1.62011 | 19397 ft | 257 kts | 2° |
| 2026-04-24 10:05 | 58.47827 | -1.61609 | 19395 ft | 257 kts | 2° |
| 2026-04-24 10:05 | 58.49607 | -1.61208 | 19398 ft | 257 kts | 2° |
| 2026-04-24 10:05 | 58.51387 | -1.60809 | 19394 ft | 257 kts | 2° |
| 2026-04-24 10:06 | 58.53164 | -1.60408 | 19394 ft | 257 kts | 2° |
| 2026-04-24 10:06 | 58.56699 | -1.59608 | 19395 ft | 257 kts | 2° |
| 2026-04-24 10:06 | 58.58477 | -1.59205 | 19392 ft | 257 kts | 2° |
| 2026-04-24 10:07 | 58.60255 | -1.58803 | 19394 ft | 257 kts | 2° |
| 2026-04-24 10:07 | 58.62032 | -1.58399 | 19399 ft | 257 kts | 1° |
| 2026-04-24 10:07 | 58.63812 | -1.57995 | 19396 ft | 257 kts | 2° |
| 2026-04-24 10:07 | 58.65592 | -1.57591 | 19397 ft | 257 kts | 1° |
| 2026-04-24 10:08 | 58.67371 | -1.57185 | 19395 ft | 258 kts | 2° |
| 2026-04-24 10:08 | 58.69151 | -1.56779 | 19396 ft | 258 kts | 1° |
| 2026-04-24 10:08 | 58.70932 | -1.56373 | 19396 ft | 258 kts | 1° |
| 2026-04-24 10:08 | 58.72718 | -1.55966 | 19396 ft | 258 kts | 1° |
| 2026-04-24 10:09 | 58.74499 | -1.55556 | 19393 ft | 258 kts | 1° |
| 2026-04-24 10:09 | 58.76282 | -1.55148 | 19393 ft | 258 kts | 1° |
| 2026-04-24 10:09 | 58.78043 | -1.54745 | 19392 ft | 258 kts | 1° |
| 2026-04-24 10:09 | 58.79827 | -1.54336 | 19394 ft | 258 kts | 1° |
| 2026-04-24 10:10 | 58.81608 | -1.53928 | 19393 ft | 258 kts | 1° |
| 2026-04-24 10:10 | 58.83396 | -1.53515 | 19393 ft | 258 kts | 1° |
| 2026-04-24 10:10 | 58.85181 | -1.53106 | 19393 ft | 258 kts | 1° |
| 2026-04-24 10:10 | 58.86970 | -1.52700 | 19394 ft | 258 kts | 1° |
| 2026-04-24 10:11 | 58.88759 | -1.52284 | 19388 ft | 258 kts | 1° |
| 2026-04-24 10:11 | 58.90543 | -1.51865 | 19389 ft | 258 kts | 1° |
| 2026-04-24 10:11 | 58.92325 | -1.51454 | 19392 ft | 258 kts | 1° |
| 2026-04-24 10:11 | 58.94112 | -1.51043 | 19393 ft | 258 kts | 1° |
| 2026-04-24 10:12 | 58.95870 | -1.50638 | 19390 ft | 258 kts | 1° |
| 2026-04-24 10:12 | 58.97656 | -1.50223 | 19392 ft | 258 kts | 1° |
| 2026-04-24 10:12 | 58.99472 | -1.49803 | 19170 ft | 267 kts | 1° |
| 2026-04-24 10:12 | 59.01345 | -1.49369 | 18937 ft | 274 kts | 1° |
| 2026-04-24 10:13 | 59.03262 | -1.48921 | 18698 ft | 280 kts | 1° |
| 2026-04-24 10:13 | 59.05203 | -1.48469 | 18434 ft | 281 kts | 2° |
| 2026-04-24 10:13 | 59.07135 | -1.48011 | 18168 ft | 279 kts | 1° |
| 2026-04-24 10:13 | 59.09064 | -1.47562 | 17899 ft | 278 kts | 1° |
| 2026-04-24 10:14 | 59.10957 | -1.47123 | 17637 ft | 277 kts | 1° |
| 2026-04-24 10:14 | 59.12873 | -1.46677 | 17375 ft | 276 kts | 2° |
| 2026-04-24 10:14 | 59.14782 | -1.46231 | 17109 ft | 276 kts | 2° |
| 2026-04-24 10:14 | 59.16685 | -1.45781 | 16846 ft | 276 kts | 2° |
| 2026-04-24 10:15 | 59.18588 | -1.45335 | 16599 ft | 275 kts | 1° |
| 2026-04-24 10:15 | 59.20487 | -1.44891 | 16343 ft | 275 kts | 1° |
| 2026-04-24 10:15 | 59.22390 | -1.44441 | 16091 ft | 275 kts | 2° |
| 2026-04-24 10:15 | 59.24285 | -1.43995 | 15845 ft | 274 kts | 2° |
| 2026-04-24 10:16 | 59.26179 | -1.43550 | 15596 ft | 274 kts | 2° |
| 2026-04-24 10:16 | 59.28072 | -1.43100 | 15350 ft | 274 kts | 2° |
| 2026-04-24 10:16 | 59.29961 | -1.42654 | 15101 ft | 273 kts | 1° |
| 2026-04-24 10:16 | 59.31847 | -1.42212 | 14764 ft | 272 kts | 2° |
| 2026-04-24 10:17 | 59.33715 | -1.41760 | 14419 ft | 269 kts | 2° |
| 2026-04-24 10:17 | 59.35566 | -1.41313 | 14077 ft | 267 kts | 2° |
| 2026-04-24 10:17 | 59.37397 | -1.40885 | 13711 ft | 264 kts | 2° |
| 2026-04-24 10:17 | 59.39212 | -1.40462 | 13405 ft | 261 kts | 2° |
| 2026-04-24 10:18 | 59.41006 | -1.40030 | 13088 ft | 258 kts | 2° |
| 2026-04-24 10:18 | 59.42784 | -1.39608 | 12778 ft | 256 kts | 2° |
| 2026-04-24 10:18 | 59.44550 | -1.39187 | 12466 ft | 255 kts | 2° |
| 2026-04-24 10:18 | 59.46285 | -1.38773 | 12168 ft | 253 kts | 2° |
| 2026-04-24 10:19 | 59.48032 | -1.38357 | 11865 ft | 252 kts | 2° |
| 2026-04-24 10:19 | 59.49772 | -1.37946 | 11556 ft | 251 kts | 2° |
| 2026-04-24 10:19 | 59.51504 | -1.37529 | 11277 ft | 250 kts | 2° |
| 2026-04-24 10:19 | 59.53233 | -1.37110 | 10974 ft | 249 kts | 2° |
| 2026-04-24 10:20 | 59.54953 | -1.36667 | 10678 ft | 247 kts | 7° |
| 2026-04-24 10:20 | 59.56533 | -1.35297 | 10386 ft | 251 kts | 25° |
| 2026-04-24 10:20 | 59.58034 | -1.33493 | 10082 ft | 253 kts | 27° |
| 2026-04-24 10:20 | 59.59516 | -1.31691 | 9767 ft | 253 kts | 27° |
| 2026-04-24 10:21 | 59.61033 | -1.29925 | 9391 ft | 253 kts | 25° |
| 2026-04-24 10:21 | 59.62557 | -1.28243 | 8971 ft | 248 kts | 24° |
| 2026-04-24 10:21 | 59.64062 | -1.26610 | 8557 ft | 245 kts | 25° |
| 2026-04-24 10:21 | 59.65548 | -1.24987 | 8155 ft | 242 kts | 25° |
| 2026-04-24 10:22 | 59.67017 | -1.23382 | 7751 ft | 240 kts | 25° |
| 2026-04-24 10:22 | 59.68481 | -1.21790 | 7352 ft | 239 kts | 25° |
| 2026-04-24 10:22 | 59.69936 | -1.20215 | 6963 ft | 238 kts | 25° |
| 2026-04-24 10:22 | 59.71389 | -1.18651 | 6560 ft | 237 kts | 25° |
| 2026-04-24 10:23 | 59.72836 | -1.17109 | 6144 ft | 235 kts | 25° |
| 2026-04-24 10:23 | 59.74260 | -1.15605 | 5737 ft | 234 kts | 25° |
| 2026-04-24 10:23 | 59.75701 | -1.14099 | 5335 ft | 233 kts | 25° |
| 2026-04-24 10:23 | 59.77122 | -1.12622 | 4920 ft | 228 kts | 25° |
| 2026-04-24 10:24 | 59.78524 | -1.11175 | 4491 ft | 226 kts | 25° |
| 2026-04-24 10:24 | 59.79917 | -1.09745 | 4093 ft | 224 kts | 25° |
| 2026-04-24 10:24 | 59.81305 | -1.08325 | 3659 ft | 224 kts | 25° |
| 2026-04-24 10:24 | 59.82691 | -1.06916 | 3245 ft | 223 kts | 25° |
| 2026-04-24 10:25 | 59.84070 | -1.05534 | 2832 ft | 221 kts | 25° |
| 2026-04-24 10:25 | 59.85424 | -1.04201 | 2459 ft | 217 kts | 25° |
| 2026-04-24 10:25 | 59.86758 | -1.02911 | 2253 ft | 206 kts | 23° |
| 2026-04-24 10:25 | 59.88091 | -1.02580 | 2154 ft | 192 kts | 344° |
| 2026-04-24 10:26 | 59.89248 | -1.03689 | 2120 ft | 180 kts | 323° |
| 2026-04-24 10:26 | 59.89862 | -1.05736 | 2103 ft | 175 kts | 277° |
| 2026-04-24 10:26 | 59.89777 | -1.08106 | 2052 ft | 170 kts | 262° |
| 2026-04-24 10:26 | 59.89570 | -1.10371 | 1842 ft | 164 kts | 260° |
| 2026-04-24 10:27 | 59.89357 | -1.12602 | 1617 ft | 163 kts | 261° |
| 2026-04-24 10:27 | 59.89193 | -1.14801 | 1384 ft | 162 kts | 263° |
| 2026-04-24 10:27 | 59.89041 | -1.16937 | 1164 ft | 152 kts | 263° |
| 2026-04-24 10:27 | 59.88883 | -1.19002 | 962 ft | 147 kts | 262° |
| 2026-04-24 10:28 | 59.88742 | -1.20842 | 794 ft | 121 kts | 262° |
| 2026-04-24 10:28 | 59.88621 | -1.22377 | 629 ft | 105 kts | 262° |
| 2026-04-24 10:28 | 59.88506 | -1.23828 | 519 ft | 106 kts | 262° |
| 2026-04-24 10:28 | 59.88396 | -1.25261 | 391 ft | 103 kts | 263° |
| 2026-04-24 10:29 | 59.88303 | -1.26639 | 242 ft | 101 kts | 265° |
| 2026-04-24 10:29 | 59.88224 | -1.28039 | 99 ft | 103 kts | 265° |
| 2026-04-24 10:29 | 59.88149 | -1.29370 | 22 ft | 72 kts | 264° |
| 2026-04-24 10:29 | 59.88127 | -1.29799 | 17 ft | 13 kts | 263° |
| 2026-04-24 10:30 | 59.88079 | -1.29889 | 17 ft | 3 kts | 153° |
| 2026-04-24 10:30 | 59.88039 | -1.29829 | 16 ft | 11 kts | 143° |
| 2026-04-24 10:30 | 59.87970 | -1.29725 | 15 ft | 13 kts | 144° |
| 2026-04-24 10:30 | 59.87891 | -1.29610 | 15 ft | 15 kts | 143° |
| 2026-04-24 10:31 | 59.87872 | -1.29546 | 15 ft | 1 kts | 49° |
| 2026-04-24 10:31 | 59.87908 | -1.29472 | 16 ft | 10 kts | 61° |
| 2026-04-24 10:31 | 59.87877 | -1.29362 | 16 ft | 12 kts | 143° |
| 2026-04-24 10:31 | 59.87804 | -1.29255 | 18 ft | 15 kts | 143° |
| 2026-04-24 10:32 | 59.87752 | -1.29174 | 16 ft | 10 kts | 138° |
| 2026-04-24 10:32 | 59.87710 | -1.29101 | 16 ft | 5 kts | 105° |
| 2026-04-24 10:32 | 59.87737 | -1.29063 | 16 ft | 3 kts | 352° |
| 2026-04-24 10:32 | 59.87748 | -1.29081 | 16 ft | 0 kts | 323° |